Vorselaar, Belgium
Current Conditions -  °F | °C
As of 7:50 PM on Thursday 30 Oct 2014 (Local Time) from EBAW Reporting Station
Clear Clear  
Wind Chill: 59°   Ceiling: Unl
Heat Index: 59°   Visibility: 6mi
Dew Point: 55°   Wind: 6mph
Humidity: 88%   Direction: 170°S
Pressure: 30.18"   Gusts: NA
Location:  51.2°N, 4.77°E
Report Text: EBAW 301850Z 17005KT CAVOK 15/13 Q1022 NOSIG
Loading
Personal Weather Stations






























Interactive Weather Map
Tropical Storm Tracking
New forecast layout! Learn more

10-Day Weather Forecast

Advertisements
Track Severe Weather on mobile